Time;durP1;ratioP1;P1;durP2;ratioP2;P2;SDS_P1;SDS_P2;PMS_P1;PMS_P2;Temp;Humidity;BMP_temperature;BMP_pressure;BME280_temperature;BME280_humidity;BME280_pressure;Samples;Min_cycle;Max_cycle;Signal;HPM_P1;HPM_P2
2022/03/06 00:01:27;;;;;;;23.40;12.35;;;2.70;65.00;;;1.29;49.95;95194.69;5047710;28;20201;-84
2022/03/06 00:03:55;;;;;;;21.60;12.02;;;2.60;65.00;;;1.21;49.74;95200.53;5031344;28;20220;-84
2022/03/06 00:06:22;;;;;;;23.30;13.38;;;2.60;65.00;;;1.16;49.72;95200.09;5031563;28;20197;-84
2022/03/06 00:08:49;;;;;;;22.08;12.70;;;2.50;65.10;;;1.09;49.88;95193.78;5015026;28;20236;-84
2022/03/06 00:11:16;;;;;;;26.55;13.57;;;2.50;65.10;;;1.04;49.97;95201.06;4998934;28;20242;-84
2022/03/06 00:13:45;;;;;;;26.85;13.90;;;2.40;65.20;;;0.98;49.83;95196.41;5017487;28;20295;-84
2022/03/06 00:16:12;;;;;;;24.00;12.40;;;2.30;65.10;;;0.92;50.08;95197.75;5031332;28;20212;-84
2022/03/06 00:18:39;;;;;;;24.75;13.88;;;2.20;65.10;;;0.77;50.11;95182.56;5031405;28;20220;-83
2022/03/06 00:21:06;;;;;;;26.48;13.38;;;2.20;65.20;;;0.79;50.04;95185.00;5035339;28;20228;-84
2022/03/06 00:23:34;;;;;;;22.77;12.65;;;2.20;65.20;;;0.74;49.97;95192.31;5033922;28;20290;-84
2022/03/06 00:26:01;;;;;;;23.25;13.07;;;2.10;65.20;;;0.61;50.18;95180.41;5035155;28;20204;-83
2022/03/06 00:28:28;;;;;;;24.95;13.48;;;2.10;65.30;;;0.63;50.27;95196.59;5031066;28;20235;-84
2022/03/06 00:30:55;;;;;;;25.38;13.50;;;2.00;65.30;;;0.54;50.40;95181.00;5018556;28;20192;-83
2022/03/06 00:33:22;;;;;;;22.83;12.95;;;2.00;65.40;;;0.55;50.40;95185.22;5062182;28;20216;-84
2022/03/06 00:35:51;;;;;;;23.75;13.63;;;1.90;65.40;;;0.47;50.44;95186.66;5071181;28;20214;-84
2022/03/06 00:38:18;;;;;;;24.83;13.93;;;1.90;65.50;;;0.41;50.66;95183.75;5071322;28;20208;-84
2022/03/06 00:40:46;;;;;;;26.42;13.85;;;1.80;65.40;;;0.37;50.10;95185.75;5054991;28;20202;-84
2022/03/06 00:43:13;;;;;;;25.95;13.93;;;1.80;65.50;;;0.28;50.51;95178.75;5050442;28;20307;-84
2022/03/06 00:45:41;;;;;;;24.92;13.80;;;1.80;65.50;;;0.27;50.61;95185.66;5018418;28;20228;-84
2022/03/06 00:48:08;;;;;;;27.23;14.45;;;1.70;65.40;;;0.20;50.69;95183.72;5034453;28;20303;-84
2022/03/06 00:50:39;;;;;;;24.20;13.52;;;1.60;65.40;;;0.13;50.49;95186.75;5051291;28;20201;-83
2022/03/06 00:53:06;;;;;;;24.70;13.65;;;1.60;65.50;;;-0.02;50.59;95165.56;5033627;28;20698;-84
2022/03/06 00:55:34;;;;;;;23.73;13.07;;;1.50;65.50;;;0.01;50.58;95189.47;5054241;28;20239;-84
2022/03/06 00:58:05;;;;;;;25.55;14.00;;;1.50;65.50;;;-0.05;50.84;95185.63;5037622;28;20290;-84
2022/03/06 01:00:35;;;;;;;23.92;13.40;;;1.40;65.50;;;-0.13;50.80;95182.84;5054840;28;20211;-84
2022/03/06 01:03:13;;;;;;;27.02;13.48;;;1.40;65.60;;;-0.17;50.40;95190.78;5033456;28;20308;-84
2022/03/06 01:05:41;;;;;;;27.73;14.45;;;1.30;65.80;;;-0.22;50.83;95185.19;5001482;28;20266;-84
2022/03/06 01:08:08;;;;;;;29.08;14.40;;;1.30;65.60;;;-0.33;50.83;95174.84;5033675;28;20231;-84
2022/03/06 01:10:38;;;;;;;27.95;13.63;;;1.20;65.90;;;-0.32;50.90;95181.66;5037780;28;20282;-84
2022/03/06 01:13:07;;;;;;;23.25;13.77;;;1.20;65.70;;;-0.37;50.79;95189.72;5020771;28;20266;-84
2022/03/06 01:15:35;;;;;;;24.13;13.32;;;1.10;65.80;;;-0.45;50.85;95176.63;5034155;28;20208;-83
2022/03/06 01:18:05;;;;;;;25.23;13.63;;;1.10;65.70;;;-0.45;50.72;95178.38;5033639;28;20222;-84
2022/03/06 01:20:37;;;;;;;25.95;14.10;;;1.00;65.80;;;-0.51;51.18;95182.25;5033892;28;20197;-84
2022/03/06 01:23:05;;;;;;;26.13;13.90;;;1.00;66.00;;;-0.57;51.08;95183.53;5053379;28;20191;-84
2022/03/06 01:25:33;;;;;;;25.10;13.43;;;0.90;65.80;;;-0.60;50.86;95178.59;5053645;28;20196;-83
2022/03/06 01:28:01;;;;;;;26.73;13.48;;;0.90;65.80;;;-0.68;50.99;95180.97;5053521;28;20261;-83
2022/03/06 01:30:29;;;;;;;25.52;13.32;;;0.80;65.80;;;-0.70;50.99;95175.91;5036907;28;20236;-83
2022/03/06 01:32:56;;;;;;;27.95;14.75;;;0.80;65.90;;;-0.78;50.88;95162.81;5033299;28;20235;-83
2022/03/06 01:35:23;;;;;;;27.15;14.10;;;0.70;65.90;;;-0.76;51.26;95173.00;5033665;28;20192;-83
2022/03/06 01:37:50;;;;;;;31.02;14.93;;;0.70;66.00;;;-0.88;51.26;95162.69;5033741;28;20255;-83
2022/03/06 01:40:19;;;;;;;23.60;12.90;;;0.70;66.10;;;-0.87;51.22;95171.22;5033489;28;20188;-84
2022/03/06 01:42:48;;;;;;;27.80;14.63;;;0.60;66.10;;;-0.87;51.44;95172.03;5030074;28;20235;-83
2022/03/06 01:45:19;;;;;;;28.17;13.80;;;0.60;66.20;;;-0.89;51.65;95181.63;5036978;28;20247;-84
2022/03/06 01:47:50;;;;;;;24.17;13.27;;;0.60;66.20;;;-0.91;51.27;95174.97;5069840;28;20249;-83
2022/03/06 01:50:24;;;;;;;24.98;14.05;;;0.50;66.30;;;-0.94;51.48;95170.03;5020267;28;20254;-83
2022/03/06 01:52:54;;;;;;;25.13;13.50;;;0.50;66.60;;;-0.95;51.44;95170.97;5049304;28;20204;-83
2022/03/06 01:55:24;;;;;;;26.65;13.13;;;0.50;66.40;;;-0.97;51.43;95177.03;5032772;28;20376;-84
2022/03/06 01:58:02;;;;;;;26.55;13.85;;;0.40;66.30;;;-1.03;51.31;95166.41;5045564;28;20173;-83
2022/03/06 02:00:44;;;;;;;30.42;14.02;;;0.40;66.60;;;-1.00;51.55;95176.44;5035741;28;20198;-84
2022/03/06 02:03:14;;;;;;;25.15;13.25;;;0.40;66.90;;;-1.00;51.08;95172.13;5019198;28;20220;-83
2022/03/06 02:05:43;;;;;;;24.83;13.23;;;0.40;66.50;;;-0.99;51.53;95172.94;5049446;28;20739;-84
2022/03/06 02:08:11;;;;;;;27.48;13.65;;;0.40;66.50;;;-0.97;51.58;95164.16;5017115;28;20589;-83
2022/03/06 02:10:38;;;;;;;26.48;13.75;;;0.40;66.70;;;-0.94;51.57;95168.31;5016524;28;20315;-84
2022/03/06 02:13:05;;;;;;;25.60;13.90;;;0.30;66.70;;;-0.91;51.84;95167.25;5042444;28;20243;-83
2022/03/06 02:15:33;;;;;;;26.67;14.13;;;0.30;66.90;;;-0.84;51.71;95165.84;5036075;28;20242;-84
2022/03/06 02:18:00;;;;;;;26.45;13.80;;;0.30;66.90;;;-0.77;51.87;95166.19;5032170;28;20209;-83
2022/03/06 02:20:28;;;;;;;25.42;14.32;;;0.40;67.10;;;-0.72;51.73;95158.94;5032641;28;20203;-83
2022/03/06 02:22:58;;;;;;;28.95;14.52;;;0.40;67.20;;;-0.62;51.73;95169.34;5019659;28;20210;-83
2022/03/06 02:25:32;;;;;;;26.17;14.15;;;0.40;67.30;;;-0.56;51.79;95163.75;5052711;28;20199;-84
2022/03/06 02:28:03;;;;;;;27.48;14.10;;;0.50;67.60;;;-0.50;51.88;95168.41;5059689;28;20189;-83
2022/03/06 02:30:35;;;;;;;25.90;14.20;;;0.50;67.40;;;-0.43;51.86;95161.88;5016259;28;20251;-83
2022/03/06 02:33:06;;;;;;;28.23;15.10;;;0.60;67.60;;;-0.39;51.97;95158.13;5032608;28;20280;-83
2022/03/06 02:35:36;;;;;;;28.55;14.45;;;0.60;67.60;;;-0.31;52.03;95156.72;5052538;28;20275;-84
2022/03/06 02:38:05;;;;;;;30.27;14.73;;;0.70;67.60;;;-0.26;52.08;95157.97;5027718;28;20272;-84
2022/03/06 02:40:42;;;;;;;28.98;15.10;;;0.70;67.60;;;-0.23;52.11;95160.34;5048840;28;20243;-83
2022/03/06 02:43:12;;;;;;;26.83;14.88;;;0.80;67.70;;;-0.12;51.96;95171.56;5032277;28;20274;-84
2022/03/06 02:45:40;;;;;;;26.50;14.43;;;0.80;67.70;;;-0.09;51.99;95166.97;5032041;28;20235;-84
2022/03/06 02:48:10;;;;;;;25.88;14.10;;;0.90;67.70;;;-0.05;51.92;95162.41;5032173;28;20224;-83
2022/03/06 02:50:41;;;;;;;26.08;14.60;;;0.90;67.70;;;-0.01;52.05;95156.91;5001242;28;20224;-83
2022/03/06 02:53:10;;;;;;;28.02;14.88;;;1.00;68.50;;;0.04;51.57;95156.53;5033683;28;20213;-84
2022/03/06 02:55:39;;;;;;;28.27;14.95;;;1.00;67.60;;;0.08;52.21;95152.75;5048167;28;20231;-84
2022/03/06 02:58:08;;;;;;;26.50;14.52;;;1.10;67.60;;;0.10;52.13;95158.63;5033239;28;20217;-84
2022/03/06 03:00:35;;;;;;;26.40;14.50;;;1.10;67.50;;;0.11;52.04;95160.28;5050602;28;20196;-83
2022/03/06 03:03:03;;;;;;;29.17;14.65;;;1.10;67.50;;;0.10;52.01;95155.25;5051912;28;20700;-84
2022/03/06 03:05:30;;;;;;;30.75;14.90;;;1.20;67.60;;;0.12;52.03;95150.75;5066324;28;20200;-83
2022/03/06 03:07:57;;;;;;;28.70;14.35;;;1.20;67.50;;;0.14;52.08;95160.00;5031910;28;20737;-83
2022/03/06 03:10:26;;;;;;;28.85;14.68;;;1.20;68.40;;;0.14;51.91;95159.22;5043388;28;20227;-83
2022/03/06 03:12:54;;;;;;;27.98;15.02;;;1.20;67.50;;;0.12;52.15;95154.19;5018905;28;20207;-84
2022/03/06 03:15:22;;;;;;;26.60;13.98;;;1.30;67.60;;;0.10;51.93;95156.06;5026791;28;20731;-83
2022/03/06 03:17:49;;;;;;;24.63;13.35;;;1.30;67.40;;;0.08;51.85;95154.53;5067660;28;20597;-83
2022/03/06 03:20:17;;;;;;;26.50;14.10;;;1.30;67.30;;;0.05;51.92;95153.03;5030457;28;20285;-84
2022/03/06 03:22:45;;;;;;;25.98;14.38;;;1.30;67.40;;;0.01;52.16;95148.22;5031772;28;20569;-84
2022/03/06 03:25:12;;;;;;;28.08;14.82;;;1.20;67.20;;;-0.07;51.82;95148.84;5033808;28;20257;-84
2022/03/06 03:27:40;;;;;;;26.08;13.82;;;1.20;67.20;;;-0.09;52.10;95154.09;5051452;28;20196;-84
2022/03/06 03:30:09;;;;;;;28.10;14.57;;;1.20;67.10;;;-0.17;52.03;95156.47;5051246;28;20224;-84
2022/03/06 03:32:37;;;;;;;26.42;13.82;;;1.20;67.00;;;-0.25;52.01;95151.91;5051462;28;20249;-84
2022/03/06 03:35:05;;;;;;;25.63;13.75;;;1.10;66.90;;;-0.33;51.65;95152.50;5052906;28;20216;-84
2022/03/06 03:37:33;;;;;;;25.20;13.60;;;1.10;66.90;;;-0.41;51.87;95147.09;5031933;28;20196;-84
2022/03/06 03:40:00;;;;;;;29.27;14.68;;;1.00;66.80;;;-0.50;52.00;95150.38;4999708;28;20217;-83
2022/03/06 03:42:28;;;;;;;27.63;15.23;;;1.00;66.80;;;-0.61;51.87;95148.66;5015335;28;20274;-84
2022/03/06 03:44:55;;;;;;;28.48;15.18;;;0.90;66.80;;;-0.67;52.23;95157.66;5029923;28;20614;-84
2022/03/06 03:47:22;;;;;;;27.70;14.52;;;0.80;66.80;;;-0.75;52.07;95160.00;5049271;28;20659;-83
2022/03/06 03:49:50;;;;;;;28.23;14.80;;;0.80;66.90;;;-0.80;52.37;95159.53;5031628;28;20252;-83
2022/03/06 03:52:17;;;;;;;31.88;15.50;;;0.80;66.90;;;-0.86;52.34;95168.53;5031855;28;20193;-83
2022/03/06 03:54:44;;;;;;;27.35;13.95;;;0.70;66.90;;;-0.91;52.16;95167.25;5033800;28;20582;-84
2022/03/06 03:57:13;;;;;;;26.00;14.75;;;0.60;66.90;;;-1.01;52.31;95169.69;5033458;28;20819;-84
2022/03/06 03:59:41;;;;;;;28.80;15.70;;;0.50;66.90;;;-1.14;52.46;95142.25;5038083;28;20428;-83
2022/03/06 04:02:08;;;;;;;28.38;15.23;;;0.50;67.00;;;-1.09;52.54;95167.66;5038693;28;20208;-84
2022/03/06 04:04:36;;;;;;;31.40;15.50;;;0.40;66.90;;;-1.20;52.40;95162.50;5054657;28;20293;-84
2022/03/06 04:07:04;;;;;;;28.33;15.10;;;0.40;67.10;;;-1.28;52.39;95160.50;5038179;28;20204;-84
2022/03/06 04:09:31;;;;;;;27.50;15.10;;;0.30;67.10;;;-1.40;52.72;95156.22;5038661;28;20247;-84
2022/03/06 04:11:58;;;;;;;28.65;14.95;;;0.30;67.10;;;-1.31;52.46;95169.28;5034595;28;20284;-84
2022/03/06 04:14:25;;;;;;;27.70;14.85;;;0.20;67.20;;;-1.35;52.73;95167.84;5002312;28;20270;-84
2022/03/06 04:16:52;;;;;;;31.20;15.70;;;0.20;67.10;;;-1.40;52.83;95164.78;5034830;28;20204;-84
2022/03/06 04:19:19;;;;;;;29.67;15.48;;;0.10;67.10;;;-1.43;52.63;95172.72;5038528;28;20227;-84
2022/03/06 04:21:46;;;;;;;30.23;14.82;;;0.10;67.20;;;-1.48;52.73;95169.66;5043989;28;20197;-83
2022/03/06 04:24:13;;;;;;;29.60;15.02;;;0.00;67.20;;;-1.49;52.73;95174.00;5034731;28;20311;-84
2022/03/06 04:26:40;;;;;;;27.38;15.40;;;0.00;67.20;;;-1.51;52.92;95182.75;5051454;28;20193;-84
2022/03/06 04:29:08;;;;;;;27.92;14.82;;;0.00;67.30;;;-1.64;52.83;95165.63;5034829;28;20226;-84
2022/03/06 04:31:35;;;;;;;28.85;15.50;;;-0.10;67.30;;;-1.55;53.08;95181.31;5061904;28;20211;-83
2022/03/06 04:34:02;;;;;;;30.60;14.50;;;-0.10;67.40;;;-1.59;52.94;95177.34;5041481;28;20580;-84
2022/03/06 04:36:29;;;;;;;29.52;15.07;;;-0.10;67.50;;;-1.62;52.92;95173.25;5020927;28;20237;-83
2022/03/06 04:38:57;;;;;;;27.67;14.25;;;-0.10;67.50;;;-1.58;52.91;95184.13;5052027;28;20252;-84
2022/03/06 04:41:24;;;;;;;29.00;15.20;;;-0.20;67.50;;;-1.60;53.01;95194.50;5018467;28;20221;-83
2022/03/06 04:43:52;;;;;;;28.88;14.77;;;-0.10;67.50;;;-1.62;53.02;95188.69;5034370;28;20263;-84
2022/03/06 04:46:19;;;;;;;27.15;13.50;;;-0.20;67.50;;;-1.61;53.11;95190.31;5034866;28;20193;-84
2022/03/06 04:48:48;;;;;;;27.95;14.20;;;-0.20;67.50;;;-1.61;52.87;95190.31;5046424;28;20220;-84
2022/03/06 04:51:15;;;;;;;27.35;13.57;;;-0.20;67.60;;;-1.63;53.27;95187.84;5040742;28;20233;-84
2022/03/06 04:53:43;;;;;;;24.98;14.18;;;-0.20;67.60;;;-1.63;53.10;95197.31;5017758;28;20231;-84
2022/03/06 04:56:10;;;;;;;26.30;13.82;;;-0.20;67.60;;;-1.65;52.93;95183.75;5020857;28;20535;-84
2022/03/06 04:58:37;;;;;;;27.23;14.45;;;-0.30;67.60;;;-1.66;53.10;95188.06;5054398;28;20212;-84
2022/03/06 05:01:04;;;;;;;28.58;14.00;;;-0.30;67.60;;;-1.68;53.00;95195.06;5030600;28;20295;-83
2022/03/06 05:03:31;;;;;;;28.83;13.93;;;-0.30;67.60;;;-1.68;53.26;95191.69;5034395;28;20236;-84
2022/03/06 05:05:59;;;;;;;27.20;14.32;;;-0.30;67.60;;;-1.84;53.09;95168.81;5024190;28;20649;-84
2022/03/06 05:08:27;;;;;;;28.92;14.18;;;-0.30;67.60;;;-1.73;52.82;95194.59;5070275;28;20232;-84
2022/03/06 05:10:55;;;;;;;28.80;14.30;;;-0.30;67.60;;;-1.78;53.23;95197.47;5055878;28;20226;-84
2022/03/06 05:13:24;;;;;;;27.33;14.73;;;-0.30;67.70;;;-1.80;53.23;95199.31;5032343;28;20225;-83
2022/03/06 05:15:52;;;;;;;26.25;13.55;;;-0.40;67.70;;;-1.82;53.37;95198.63;5017471;28;20254;-83
2022/03/06 05:18:20;;;;;;;31.13;14.80;;;-0.40;67.70;;;-1.84;53.31;95197.91;5017105;28;20703;-84
2022/03/06 05:20:48;;;;;;;25.88;14.00;;;-0.40;67.70;;;-1.86;53.53;95197.19;5033357;28;20646;-84
2022/03/06 05:23:17;;;;;;;26.48;13.77;;;-0.40;67.80;;;-1.87;53.40;95202.44;5018352;28;20611;-83
2022/03/06 05:25:45;;;;;;;30.88;14.65;;;-0.50;67.80;;;-1.90;53.55;95198.34;5050157;28;20287;-84
2022/03/06 05:28:13;;;;;;;27.00;14.23;;;-0.50;67.80;;;-2.02;53.63;95183.78;5035225;28;20252;-83
2022/03/06 05:30:40;;;;;;;31.02;16.02;;;-0.50;67.80;;;-1.89;53.52;95207.72;5037097;28;20250;-83
2022/03/06 05:33:07;;;;;;;27.20;14.77;;;-0.50;68.00;;;-1.98;53.32;95188.63;5052983;28;20251;-83
2022/03/06 05:35:35;;;;;;;26.20;13.85;;;-0.50;68.10;;;-1.84;53.73;95202.25;5037075;28;20261;-83
2022/03/06 05:38:02;;;;;;;25.90;14.32;;;-0.50;68.40;;;-1.79;53.92;95200.97;5053233;28;20286;-84
2022/03/06 05:40:29;;;;;;;24.10;13.20;;;-0.50;68.50;;;-1.71;53.99;95205.59;5034817;28;20220;-84
2022/03/06 05:42:56;;;;;;;28.92;14.65;;;-0.50;68.50;;;-1.74;53.80;95179.28;5036303;28;20280;-84
2022/03/06 05:45:23;;;;;;;22.80;12.85;;;-0.50;68.50;;;-1.54;53.78;95193.25;5070055;28;20189;-84
2022/03/06 05:47:51;;;;;;;26.85;13.57;;;-0.40;68.50;;;-1.46;53.65;95188.38;5033478;28;20199;-83
2022/03/06 05:50:18;;;;;;;25.95;13.85;;;-0.40;68.50;;;-1.37;53.57;95185.13;5053163;28;20310;-84
2022/03/06 05:52:45;;;;;;;25.23;13.77;;;-0.30;68.60;;;-1.28;53.94;95183.66;5033306;28;20204;-84
2022/03/06 05:55:12;;;;;;;25.38;13.95;;;-0.30;68.60;;;-1.15;53.63;95199.00;5000532;28;20285;-83
2022/03/06 05:57:39;;;;;;;27.60;13.82;;;-0.20;68.70;;;-1.08;53.67;95182.19;5016726;28;20215;-83
2022/03/06 06:00:08;;;;;;;28.55;14.32;;;-0.10;68.80;;;-1.00;53.78;95181.59;5032885;28;20312;-84
2022/03/06 06:02:37;;;;;;;26.30;13.70;;;0.00;68.90;;;-0.92;53.78;95184.44;5000025;28;20232;-84
2022/03/06 06:05:07;;;;;;;27.67;14.55;;;0.00;68.80;;;-0.77;53.70;95187.59;5016672;28;20296;-83
2022/03/06 06:07:34;;;;;;;26.10;14.50;;;0.10;68.90;;;-0.68;53.76;95188.69;5049721;28;20204;-83
2022/03/06 06:10:04;;;;;;;30.17;15.52;;;0.20;69.00;;;-0.60;53.56;95177.81;5032564;28;20220;-83
2022/03/06 06:12:31;;;;;;;29.08;14.82;;;0.30;69.00;;;-0.49;53.52;95185.53;5069630;28;20230;-84
2022/03/06 06:14:59;;;;;;;43.45;22.30;;;0.40;69.10;;;-0.41;53.19;95183.19;5036366;28;20312;-83
2022/03/06 06:17:26;;;;;;;28.65;16.77;;;0.40;69.10;;;-0.31;53.42;95187.66;5016323;28;20622;-83
2022/03/06 06:19:53;;;;;;;27.30;14.10;;;0.50;69.20;;;-0.29;53.17;95170.28;5032646;28;20307;-83
2022/03/06 06:22:20;;;;;;;27.00;14.27;;;0.60;69.30;;;-0.20;53.36;95172.97;5037141;28;20303;-84
2022/03/06 06:24:47;;;;;;;25.27;14.35;;;0.60;69.20;;;-0.06;53.42;95181.38;5069302;28;20215;-83
2022/03/06 06:27:14;;;;;;;37.38;20.08;;;0.70;69.20;;;0.03;53.03;95183.25;5069301;28;20720;-83
2022/03/06 06:29:41;;;;;;;28.27;15.45;;;0.80;69.10;;;0.10;53.28;95175.88;5052342;28;20299;-84
2022/03/06 06:32:08;;;;;;;30.58;16.55;;;0.90;69.60;;;0.19;53.04;95175.13;5051494;28;20236;-83
2022/03/06 06:34:35;;;;;;;27.38;14.55;;;1.00;69.00;;;0.27;53.27;95182.25;5051947;28;20216;-83
2022/03/06 06:37:03;;;;;;;23.95;13.95;;;1.10;68.90;;;0.34;53.20;95173.09;5052546;28;20287;-84
2022/03/06 06:39:30;;;;;;;26.73;14.80;;;1.10;68.90;;;0.44;52.94;95175.75;5035820;28;20681;-84
2022/03/06 06:41:59;;;;;;;25.50;14.18;;;1.20;68.90;;;0.50;52.82;95182.19;5052060;28;20203;-84
2022/03/06 06:44:27;;;;;;;29.70;15.50;;;1.30;68.90;;;0.60;53.08;95186.50;5051429;28;20216;-83
2022/03/06 06:46:54;;;;;;;27.30;13.85;;;1.30;69.10;;;0.69;53.06;95187.50;5052406;28;20570;-83
2022/03/06 06:49:22;;;;;;;26.83;14.95;;;1.40;68.90;;;0.78;52.95;95188.53;5051828;28;20227;-84
2022/03/06 06:51:49;;;;;;;40.75;17.95;;;1.50;68.90;;;0.90;52.94;95194.47;5062865;28;20216;-83
2022/03/06 06:54:16;;;;;;;32.20;16.35;;;1.50;68.90;;;0.97;52.96;95198.19;5032435;28;20217;-84
2022/03/06 06:56:43;;;;;;;32.38;16.08;;;1.60;68.90;;;1.08;52.76;95202.47;5036511;28;20658;-84
2022/03/06 06:59:11;;;;;;;27.45;15.45;;;1.70;68.90;;;1.18;52.44;95195.59;5032064;28;20283;-83
2022/03/06 07:01:38;;;;;;;26.05;15.40;;;1.80;69.00;;;1.23;53.01;95190.03;5044645;28;20207;-84
2022/03/06 07:04:05;;;;;;;29.10;14.88;;;1.90;69.00;;;1.34;53.03;95194.31;5041798;28;20271;-83
2022/03/06 07:06:32;;;;;;;23.95;14.68;;;2.00;68.90;;;1.39;52.79;95197.34;5015484;28;20274;-83
2022/03/06 07:08:59;;;;;;;25.48;15.23;;;2.00;68.90;;;1.51;52.86;95203.25;5015624;28;20295;-83
2022/03/06 07:11:26;;;;;;;26.02;14.70;;;2.10;68.90;;;1.59;52.92;95198.28;5028543;28;20224;-83
2022/03/06 07:13:54;;;;;;;26.83;14.48;;;2.20;68.80;;;1.65;52.73;95202.09;5033466;28;20290;-83
2022/03/06 07:16:21;;;;;;;24.75;14.40;;;2.30;68.70;;;1.67;52.36;95205.38;5057350;28;20204;-84
2022/03/06 07:18:48;;;;;;;22.85;14.23;;;2.30;68.60;;;1.70;52.54;95205.94;5016340;28;20216;-83
2022/03/06 07:21:16;;;;;;;23.23;14.90;;;2.40;68.60;;;1.79;52.55;95211.28;5067934;28;20232;-83
2022/03/06 07:23:43;;;;;;;28.60;17.30;;;2.40;68.50;;;1.83;52.82;95210.91;5067945;28;20275;-83
2022/03/06 07:26:10;;;;;;;28.15;16.35;;;2.50;68.50;;;1.89;52.46;95214.72;5067654;28;20273;-83
2022/03/06 07:28:37;;;;;;;25.80;15.98;;;2.60;68.50;;;1.88;52.27;95213.06;5014275;28;20346;-83
2022/03/06 07:31:05;;;;;;;22.83;14.40;;;2.60;68.40;;;1.92;52.23;95212.69;5050133;28;20235;-83
2022/03/06 07:33:32;;;;;;;24.40;14.85;;;2.70;68.40;;;1.96;52.23;95210.66;5044722;28;20669;-84
2022/03/06 07:35:59;;;;;;;25.73;15.07;;;2.70;68.30;;;2.01;52.46;95212.84;5055739;28;20681;-83
2022/03/06 07:38:26;;;;;;;25.67;15.18;;;2.70;68.30;;;2.06;52.49;95213.25;5055841;28;20592;-83
2022/03/06 07:40:54;;;;;;;23.77;15.02;;;2.80;68.40;;;2.13;52.72;95219.56;5056145;28;20211;-84
2022/03/06 07:43:21;;;;;;;21.83;14.18;;;2.80;68.40;;;2.17;52.55;95209.75;5053903;28;20559;-84
2022/03/06 07:45:48;;;;;;;27.13;15.50;;;2.80;68.30;;;2.21;52.01;95221.47;5055401;28;20291;-83
2022/03/06 07:48:15;;;;;;;27.50;15.63;;;2.90;68.20;;;2.20;52.10;95215.50;5022279;28;20224;-83
2022/03/06 07:50:42;;;;;;;25.13;14.60;;;2.90;68.20;;;2.16;51.98;95203.78;5055078;28;20768;-83
2022/03/06 07:53:09;;;;;;;41.42;23.88;;;3.00;68.20;;;2.20;52.14;95199.97;5050692;28;20771;-83
2022/03/06 07:55:37;;;;;;;36.65;21.48;;;3.00;68.20;;;2.33;52.11;95211.84;5035333;28;20636;-83
2022/03/06 07:58:04;;;;;;;27.15;17.08;;;3.00;68.20;;;2.36;52.20;95217.56;5048707;28;20196;-84
2022/03/06 08:00:31;;;;;;;27.20;15.52;;;3.10;68.20;;;2.41;52.07;95217.16;5002570;28;20258;-83
2022/03/06 08:02:58;;;;;;;47.70;20.63;;;3.10;68.20;;;2.45;52.06;95221.13;5019170;28;20239;-83
2022/03/06 08:05:25;;;;;;;35.90;17.77;;;3.10;68.20;;;2.49;52.06;95221.66;5018926;28;20299;-84
2022/03/06 08:07:52;;;;;;;44.75;17.30;;;3.20;68.20;;;2.44;52.12;95210.91;5002294;28;20287;-84
2022/03/06 08:10:20;;;;;;;37.22;15.85;;;3.20;68.20;;;2.64;52.03;95227.28;5002622;28;20609;-84
2022/03/06 08:12:50;;;;;;;38.30;15.75;;;3.30;68.20;;;2.68;52.17;95224.28;5028341;28;20197;-84
2022/03/06 08:15:17;;;;;;;28.75;15.52;;;3.30;68.10;;;2.74;52.01;95219.53;5018558;28;20205;-84
2022/03/06 08:17:44;;;;;;;29.02;15.43;;;3.30;68.10;;;2.78;51.97;95216.50;5016081;28;20291;-83
2022/03/06 08:20:12;;;;;;;43.88;15.30;;;3.40;68.20;;;2.84;51.62;95220.34;5020695;28;20596;-84
2022/03/06 08:22:40;;;;;;;60.20;16.70;;;3.40;68.10;;;2.80;52.11;95206.03;5071120;28;20218;-84
2022/03/06 08:25:08;;;;;;;33.58;19.38;;;3.60;68.30;;;2.96;51.99;95215.84;5041971;28;20224;-83
2022/03/06 08:27:36;;;;;;;35.05;18.63;;;3.50;68.20;;;3.06;51.92;95221.81;5034641;28;20540;-84
2022/03/06 08:30:05;;;;;;;26.42;16.52;;;3.60;68.20;;;3.14;51.83;95223.75;5018205;28;20216;-84
2022/03/06 08:32:33;;;;;;;31.77;18.35;;;3.60;68.10;;;3.22;51.53;95223.03;5050813;28;20780;-83
2022/03/06 08:35:00;;;;;;;27.73;17.35;;;3.70;68.20;;;3.27;51.76;95216.50;5022016;28;20271;-84
2022/03/06 08:37:28;;;;;;;28.48;17.10;;;3.80;68.20;;;3.41;51.57;95215.22;5071124;28;20295;-84
2022/03/06 08:39:55;;;;;;;26.73;16.55;;;3.90;68.20;;;3.51;51.82;95223.78;5067280;28;20701;-83
2022/03/06 08:42:23;;;;;;;29.77;19.38;;;3.90;68.20;;;3.62;51.51;95214.22;5054491;28;20192;-84
2022/03/06 08:44:50;;;;;;;34.15;20.02;;;4.00;68.20;;;3.70;51.29;95209.16;5053147;28;20800;-84
2022/03/06 08:47:17;;;;;;;32.72;20.65;;;4.10;68.10;;;3.78;51.43;95211.84;5044487;28;20208;-84
2022/03/06 08:49:45;;;;;;;36.60;22.48;;;4.20;68.10;;;3.84;51.10;95218.25;5051121;28;20225;-84
2022/03/06 08:52:12;;;;;;;30.05;19.85;;;4.30;68.00;;;3.85;51.24;95207.72;5033975;28;20217;-84
2022/03/06 08:54:39;;;;;;;29.17;18.58;;;4.30;67.90;;;3.98;51.16;95219.56;5017334;28;20220;-84
2022/03/06 08:57:06;;;;;;;31.40;19.13;;;4.40;67.90;;;4.03;51.11;95219.94;5019449;28;20191;-84
2022/03/06 08:59:33;;;;;;;31.90;20.20;;;4.50;67.80;;;4.09;51.05;95214.19;5059566;28;20217;-84
2022/03/06 09:02:00;;;;;;;29.75;19.33;;;4.50;67.80;;;4.13;50.99;95201.75;5033501;28;20284;-84
2022/03/06 09:04:27;;;;;;;28.02;16.98;;;4.60;67.90;;;4.25;50.84;95208.38;5055322;28;20337;-84
2022/03/06 09:06:54;;;;;;;27.98;16.73;;;4.70;67.90;;;4.31;51.02;95202.59;5037643;28;20192;-84
2022/03/06 09:09:21;;;;;;;29.60;18.65;;;4.70;67.80;;;4.38;50.44;95205.44;5069815;28;20705;-85
2022/03/06 09:11:48;;;;;;;28.33;18.30;;;4.80;67.70;;;4.41;50.75;95199.13;5053160;28;20686;-85
2022/03/06 09:14:16;;;;;;;32.97;18.52;;;4.80;67.60;;;4.47;50.94;95195.94;5052940;28;20275;-85
2022/03/06 09:16:43;;;;;;;27.75;17.75;;;4.90;68.60;;;4.57;50.74;95201.88;5034982;28;20290;-85
2022/03/06 09:19:10;;;;;;;29.92;18.58;;;5.00;67.80;;;4.53;50.80;95184.13;5053497;28;20228;-86
2022/03/06 09:21:38;;;;;;;31.30;17.90;;;5.00;67.70;;;4.72;50.88;95191.78;5054128;28;20554;-85
2022/03/06 09:24:08;;;;;;;33.45;21.27;;;5.10;67.70;;;4.88;50.47;95196.31;5036802;28;20235;-85
2022/03/06 09:26:36;;;;;;;29.83;20.63;;;5.20;67.80;;;5.00;50.76;95196.91;5054230;28;20208;-85
2022/03/06 09:29:04;;;;;;;30.65;21.02;;;5.30;67.90;;;5.08;50.70;95183.97;5036885;28;20290;-86
2022/03/06 09:31:31;;;;;;;31.15;19.50;;;5.40;67.90;;;5.23;50.42;95186.03;5053937;28;20240;-85
2022/03/06 09:33:58;;;;;;;30.50;18.25;;;5.50;67.80;;;5.33;50.44;95172.94;5053854;28;20220;-85
2022/03/06 09:36:45;;;;;;;30.20;19.17;;;5.60;67.80;;;5.54;50.80;95185.56;5067177;28;20201;-85
2022/03/06 09:39:13;;;;;;;25.38;17.48;;;5.70;67.90;;;5.64;49.91;95173.28;5054308;28;20212;-85
2022/03/06 09:41:41;;;;;;;27.25;18.08;;;5.80;67.90;;;5.86;50.13;95179.72;5052870;28;20291;-85
2022/03/06 09:44:12;;;;;;;28.38;17.48;;;5.90;67.70;;;5.99;50.09;95174.09;5020502;28;20739;-85
2022/03/06 09:46:41;;;;;;;28.73;18.20;;;6.10;67.70;;;6.11;49.86;95173.84;5053417;28;20200;-85
2022/03/06 09:49:08;;;;;;;27.27;17.70;;;6.20;67.60;;;6.24;49.86;95174.22;5019470;28;20226;-84
2022/03/06 09:51:40;;;;;;;27.83;17.05;;;6.30;67.60;;;6.37;49.76;95185.00;5021640;28;20547;-84
2022/03/06 09:54:10;;;;;;;25.48;17.40;;;6.40;67.30;;;6.46;49.78;95185.00;5045271;28;20250;-84
2022/03/06 09:56:37;;;;;;;24.27;16.60;;;6.60;67.30;;;6.49;49.37;95182.09;5035716;28;20235;-85
2022/03/06 09:59:05;;;;;;;29.88;17.85;;;6.60;67.10;;;6.47;49.19;95176.19;5037555;28;20216;-85
2022/03/06 10:01:33;;;;;;;25.05;17.15;;;6.70;66.80;;;6.44;49.42;95177.34;5063507;28;20196;-85
2022/03/06 10:04:24;;;;;;;25.25;16.67;;;6.80;66.70;;;6.34;49.08;95174.88;5043874;28;20311;-84
2022/03/06 10:07:16;;;;;;;23.08;16.00;;;6.80;65.90;;;6.28;49.15;95178.13;5047763;28;20270;-85
2022/03/06 10:09:56;;;;;;;28.60;17.08;;;6.80;65.80;;;6.22;48.89;95176.16;5046199;28;20685;-84
2022/03/06 10:12:32;;;;;;;28.08;16.35;;;6.80;65.70;;;6.16;49.35;95176.78;5032034;28;20215;-84
2022/03/06 10:15:06;;;;;;;27.67;17.45;;;6.80;65.70;;;6.08;48.95;95175.78;5030847;28;20646;-85
2022/03/06 10:17:34;;;;;;;26.88;16.85;;;6.80;65.60;;;6.05;49.06;95176.09;5013992;28;20251;-84
2022/03/06 10:20:12;;;;;;;26.50;16.70;;;6.70;65.80;;;5.99;48.98;95178.50;5025946;28;20226;-84